Time;durP1;ratioP1;P1;durP2;ratioP2;P2;SDS_P1;SDS_P2;PMS_P1;PMS_P2;Temp;Humidity;BMP_temperature;BMP_pressure;BME280_temperature;BME280_humidity;BME280_pressure;Samples;Min_cycle;Max_cycle;Signal;HPM_P1;HPM_P2
2022/05/12 00:02:01;;;;;;;0.00;0.00;;;;;;;14.28;66.82;101489.41;5011322;28;20061;-76
2022/05/12 00:04:29;;;;;;;0.10;0.10;;;;;;;14.24;66.70;101486.84;5013045;28;20513;-76
2022/05/12 00:06:55;;;;;;;0.10;0.10;;;;;;;14.27;66.31;101490.31;5012914;28;20029;-76
2022/05/12 00:09:22;;;;;;;0.00;0.00;;;;;;;14.17;66.79;101495.88;5009327;28;20076;-77
2022/05/12 00:11:48;;;;;;;0.00;0.00;;;;;;;14.19;66.82;101498.50;5006434;28;20108;-77
2022/05/12 00:14:14;;;;;;;0.70;0.70;;;;;;;14.12;67.59;101503.13;5013804;28;20049;-76
2022/05/12 00:16:41;;;;;;;0.10;0.10;;;;;;;14.15;67.45;101508.38;5013661;28;20056;-76
2022/05/12 00:19:07;;;;;;;0.00;0.00;;;;;;;14.11;67.30;101509.38;5010652;28;20388;-76
2022/05/12 00:21:34;;;;;;;0.00;0.00;;;;;;;14.17;66.57;101509.22;5010262;28;20030;-76
2022/05/12 00:24:00;;;;;;;0.10;0.10;;;;;;;14.17;66.45;101516.34;5027193;23;20025;-79
2022/05/12 00:26:30;;;;;;;0.10;0.10;;;;;;;14.17;66.77;101517.22;5018471;28;20292;-80
2022/05/12 00:28:58;;;;;;;0.00;0.00;;;;;;;14.15;66.86;101518.16;5021077;28;20036;-80
2022/05/12 00:31:26;;;;;;;0.30;0.30;;;;;;;14.06;67.36;101520.13;5018766;28;20480;-79
2022/05/12 00:33:52;;;;;;;0.10;0.10;;;;;;;14.10;67.45;101520.06;5012153;28;20077;-80
2022/05/12 00:36:19;;;;;;;0.10;0.10;;;;;;;14.11;67.09;101517.34;5004169;28;20045;-80
2022/05/12 00:38:45;;;;;;;0.08;0.08;;;;;;;14.11;66.84;101528.00;5015514;28;20044;-79
2022/05/12 00:41:12;;;;;;;0.00;0.00;;;;;;;14.01;67.15;101526.50;5023500;28;20030;-78
2022/05/12 00:43:50;;;;;;;0.05;0.05;;;;;;;14.06;67.39;101525.44;5023079;28;20468;-80
2022/05/12 00:46:20;;;;;;;0.00;0.00;;;;;;;14.06;67.58;101536.09;5018687;28;20034;-80
2022/05/12 00:48:48;;;;;;;0.10;0.10;;;;;;;14.03;67.16;101532.63;5023288;28;20048;-79
2022/05/12 00:51:24;;;;;;;0.10;0.10;;;;;;;14.03;67.45;101535.31;5023227;28;20048;-80
2022/05/12 00:53:54;;;;;;;0.38;0.20;;;;;;;14.04;67.41;101532.63;5023575;28;20022;-79
2022/05/12 00:56:24;;;;;;;0.10;0.10;;;;;;;14.00;67.71;101541.59;5022636;28;20026;-80
2022/05/12 00:58:57;;;;;;;0.10;0.10;;;;;;;14.02;67.48;101539.78;5022869;28;20033;-80
2022/05/12 01:01:23;;;;;;;0.03;0.03;;;;;;;13.96;68.21;101533.72;5020569;28;20411;-80
2022/05/12 01:03:49;;;;;;;0.47;0.47;;;;;;;14.00;67.35;101538.91;5019700;28;20042;-80
2022/05/12 01:06:16;;;;;;;0.00;0.00;;;;;;;13.98;66.97;101542.53;5017533;28;20030;-80
2022/05/12 01:08:43;;;;;;;0.10;0.10;;;;;;;13.98;67.14;101535.44;5017807;28;20094;-79
2022/05/12 01:11:14;;;;;;;0.00;0.00;;;;;;;14.02;67.86;101544.22;5009209;28;20034;-79
2022/05/12 01:13:43;;;;;;;0.00;0.00;;;;;;;13.96;67.64;101539.91;5008917;28;20032;-79
2022/05/12 01:16:09;;;;;;;0.00;0.00;;;;;;;13.98;67.22;101540.75;5017945;28;20065;-79
2022/05/12 01:18:39;;;;;;;0.05;0.05;;;;;;;13.93;67.85;101545.28;5016656;28;20022;-80
2022/05/12 01:21:07;;;;;;;0.10;0.10;;;;;;;13.94;67.63;101548.84;5023299;28;20030;-79
2022/05/12 01:23:37;;;;;;;0.10;0.10;;;;;;;13.90;68.41;101551.56;5000132;28;20037;-79
2022/05/12 01:26:07;;;;;;;0.17;0.17;;;;;;;13.91;67.91;101550.66;5019285;28;20491;-78
2022/05/12 01:28:34;;;;;;;0.00;0.00;;;;;;;13.92;67.65;101559.56;5019102;28;20033;-79
2022/05/12 01:31:00;;;;;;;1.27;1.27;;;;;;;13.81;68.18;101559.78;5019353;28;20535;-78
2022/05/12 01:33:27;;;;;;;1.15;0.52;;;;;;;13.87;67.62;101561.44;5018470;28;20052;-78
2022/05/12 01:35:54;;;;;;;0.10;0.10;;;;;;;13.87;67.69;101551.66;5007213;28;20427;-80
2022/05/12 01:38:21;;;;;;;0.00;0.00;;;;;;;13.90;68.00;101556.91;5017820;28;20096;-80
2022/05/12 01:40:47;;;;;;;0.00;0.00;;;;;;;13.89;67.88;101568.50;5011449;28;20057;-79
2022/05/12 01:43:15;;;;;;;0.00;0.00;;;;;;;13.93;67.82;101558.63;5020011;28;20108;-79
2022/05/12 01:45:42;;;;;;;0.30;0.30;;;;;;;13.90;67.30;101564.88;5008259;28;20029;-77
2022/05/12 01:48:10;;;;;;;0.10;0.10;;;;;;;13.96;67.01;101571.00;5020163;28;20026;-80
2022/05/12 01:50:38;;;;;;;0.03;0.03;;;;;;;13.89;67.78;101575.59;5013353;28;20048;-79
2022/05/12 01:53:05;;;;;;;0.08;0.08;;;;;;;13.93;67.54;101577.25;5005013;28;20029;-79
2022/05/12 01:55:31;;;;;;;0.15;0.15;;;;;;;13.88;68.01;101574.72;5016611;28;20105;-78
2022/05/12 01:57:57;;;;;;;0.10;0.10;;;;;;;13.84;68.44;101577.47;5016238;28;20080;-80
2022/05/12 02:00:26;;;;;;;0.10;0.10;;;;;;;13.91;67.55;101582.63;5014344;28;20038;-80
2022/05/12 02:02:53;;;;;;;0.10;0.10;;;;;;;13.93;67.45;101579.06;5015085;28;20057;-80
2022/05/12 02:05:20;;;;;;;0.17;0.17;;;;;;;13.91;67.33;101585.28;5017975;28;20080;-79
2022/05/12 02:07:48;;;;;;;0.05;0.05;;;;;;;13.90;67.09;101586.19;5015318;28;20026;-79
2022/05/12 02:10:20;;;;;;;0.10;0.10;;;;;;;13.93;67.19;101587.06;5012200;28;20109;-80
2022/05/12 02:12:47;;;;;;;0.03;0.03;;;;;;;13.88;67.26;101601.38;5015479;28;20022;-80
2022/05/12 02:15:14;;;;;;;0.08;0.08;;;;;;;13.82;67.47;101593.50;5014396;28;20033;-80
2022/05/12 02:17:42;;;;;;;0.00;0.00;;;;;;;13.84;67.56;101604.13;5016254;28;20118;-79
2022/05/12 02:20:12;;;;;;;0.00;0.00;;;;;;;13.85;67.64;101606.75;5012321;28;20113;-79
2022/05/12 02:22:38;;;;;;;0.00;0.00;;;;;;;13.83;67.75;101613.91;5010730;28;20041;-79
2022/05/12 02:25:06;;;;;;;0.03;0.03;;;;;;;13.81;67.70;101615.72;5012529;28;20499;-80
2022/05/12 02:27:32;;;;;;;0.10;0.10;;;;;;;13.82;67.56;101611.25;5014248;28;20041;-80
2022/05/12 02:29:58;;;;;;;0.10;0.10;;;;;;;13.76;67.93;101617.59;5014171;28;20034;-80
2022/05/12 02:32:27;;;;;;;0.00;0.00;;;;;;;13.76;67.89;101617.59;5013194;28;20038;-79
2022/05/12 02:34:54;;;;;;;0.10;0.10;;;;;;;13.82;67.64;101633.47;5013741;28;20029;-79
2022/05/12 02:37:21;;;;;;;0.08;0.08;;;;;;;13.80;67.32;101629.94;5015649;28;20073;-80
2022/05/12 02:39:47;;;;;;;3.00;1.58;;;;;;;13.82;68.07;101630.78;5016146;28;20029;-79
2022/05/12 02:42:13;;;;;;;0.10;0.10;;;;;;;13.85;67.52;101633.38;5019268;28;20053;-79
2022/05/12 02:44:40;;;;;;;0.00;0.00;;;;;;;13.88;67.10;101638.66;5013415;28;20030;-79
2022/05/12 02:47:07;;;;;;;0.00;0.00;;;;;;;13.91;67.17;101643.91;5013169;28;20034;-77
2022/05/12 02:49:34;;;;;;;0.00;0.00;;;;;;;13.91;68.15;101648.38;5017726;28;20026;-79
2022/05/12 02:52:00;;;;;;;0.20;0.20;;;;;;;13.94;67.40;101647.41;5017875;28;20377;-79
2022/05/12 02:54:26;;;;;;;0.00;0.00;;;;;;;13.90;67.63;101646.59;5016331;28;20037;-78
2022/05/12 02:56:55;;;;;;;0.20;0.20;;;;;;;13.95;67.41;101649.19;5018397;28;20120;-79
2022/05/12 02:59:22;;;;;;;0.00;0.00;;;;;;;13.83;67.35;101648.53;5018187;28;20041;-79
2022/05/12 03:01:49;;;;;;;0.00;0.00;;;;;;;13.84;67.19;101652.94;5018323;28;20041;-79
2022/05/12 03:04:15;;;;;;;0.00;0.00;;;;;;;13.87;67.31;101652.88;5019282;28;20384;-79
2022/05/12 03:06:42;;;;;;;0.00;0.00;;;;;;;13.84;67.62;101655.59;5011255;28;20096;-79
2022/05/12 03:09:09;;;;;;;0.00;0.00;;;;;;;13.83;67.56;101656.53;5012540;28;20096;-78
2022/05/12 03:11:36;;;;;;;0.00;0.00;;;;;;;13.86;66.79;101658.25;5016335;28;20034;-79
2022/05/12 03:14:03;;;;;;;0.10;0.10;;;;;;;13.80;67.55;101666.38;5003724;28;20038;-78
2022/05/12 03:16:30;;;;;;;0.00;0.00;;;;;;;13.81;67.05;101662.78;5008976;28;20039;-80
2022/05/12 03:18:56;;;;;;;0.00;0.00;;;;;;;13.82;66.53;101662.75;5012242;28;20694;-80
2022/05/12 03:21:23;;;;;;;0.10;0.10;;;;;;;13.79;67.35;101665.47;5017009;28;20033;-78
2022/05/12 03:23:49;;;;;;;0.00;0.00;;;;;;;13.76;67.31;101673.53;5016490;28;20026;-80
2022/05/12 03:26:16;;;;;;;0.10;0.10;;;;;;;13.77;67.49;101669.97;5016596;28;20084;-80
2022/05/12 03:28:42;;;;;;;0.00;0.00;;;;;;;13.74;67.42;101672.69;5005292;28;20066;-80
2022/05/12 03:31:09;;;;;;;0.03;0.03;;;;;;;13.68;67.57;101680.78;5014552;28;20565;-82
2022/05/12 03:33:36;;;;;;;0.00;0.00;;;;;;;13.76;67.12;101684.19;5003719;28;20399;-81
2022/05/12 03:36:04;;;;;;;0.00;0.00;;;;;;;13.73;67.06;101686.91;5013048;28;20045;-83
2022/05/12 03:38:30;;;;;;;0.10;0.10;;;;;;;13.73;67.01;101693.13;5013577;28;20168;-82
2022/05/12 03:40:56;;;;;;;0.00;0.00;;;;;;;13.74;66.86;101699.31;5009947;28;20030;-81
2022/05/12 03:46:09;;;;;;;0.10;0.10;;;;;;;13.75;66.55;101699.28;5013287;28;20113;-81
2022/05/12 03:48:37;;;;;;;0.00;0.00;;;;;;;13.74;67.20;101707.28;5002577;28;20038;-81
2022/05/12 03:51:04;;;;;;;0.65;0.65;;;;;;;13.69;66.37;101701.19;5017061;28;20538;-82
2022/05/12 03:53:31;;;;;;;0.95;0.95;;;;;;;13.71;67.13;101710.03;5009014;28;20505;-82
2022/05/12 03:55:57;;;;;;;3.70;0.88;;;;;;;13.68;66.79;101713.63;5020565;28;20479;-81
2022/05/12 03:58:24;;;;;;;0.10;0.10;;;;;;;13.67;66.83;101710.97;5019838;28;20547;-82
2022/05/12 04:00:52;;;;;;;0.00;0.00;;;;;;;13.64;67.35;101713.72;5016849;28;20049;-83
2022/05/12 04:03:18;;;;;;;0.00;0.00;;;;;;;13.64;66.84;101719.91;5019804;28;20037;-83
2022/05/12 04:05:45;;;;;;;0.10;0.10;;;;;;;13.60;66.92;101710.22;5016612;28;20026;-82
2022/05/12 04:08:11;;;;;;;0.10;0.10;;;;;;;13.63;67.10;101712.81;5019851;28;20025;-82
2022/05/12 04:10:38;;;;;;;0.00;0.00;;;;;;;13.64;66.84;101708.38;5013756;28;20026;-80
2022/05/12 04:13:04;;;;;;;0.08;0.08;;;;;;;13.64;66.87;101716.38;5018930;28;20036;-82
2022/05/12 04:15:30;;;;;;;0.75;0.75;;;;;;;13.64;67.08;101721.72;5016716;28;20030;-79
2022/05/12 04:17:59;;;;;;;0.63;0.57;;;;;;;13.59;67.36;101727.09;5012766;28;20088;-80
2022/05/12 04:20:27;;;;;;;0.00;0.00;;;;;;;13.62;67.23;101736.81;5007073;28;20085;-80
2022/05/12 04:22:53;;;;;;;0.75;0.75;;;;;;;13.62;67.36;101737.72;5014369;28;20037;-80
2022/05/12 04:25:20;;;;;;;0.00;0.00;;;;;;;13.65;66.84;101739.44;5011635;28;20061;-80
2022/05/12 04:27:46;;;;;;;0.00;0.00;;;;;;;13.62;66.97;101745.72;5006815;28;20030;-79
2022/05/12 04:30:15;;;;;;;0.00;0.00;;;;;;;13.66;67.09;101743.88;5011170;28;20479;-80
2022/05/12 04:32:42;;;;;;;0.00;0.00;;;;;;;13.57;66.94;101743.13;5005503;28;20054;-79
2022/05/12 04:35:13;;;;;;;0.10;0.10;;;;;;;13.63;66.74;101749.22;5010537;28;20038;-79
2022/05/12 04:37:46;;;;;;;0.20;0.20;;;;;;;13.59;67.00;101749.31;5011597;28;20085;-79
2022/05/12 04:40:18;;;;;;;0.93;0.90;;;;;;;13.64;67.28;101757.19;5012460;28;20030;-80
2022/05/12 04:42:47;;;;;;;0.10;0.10;;;;;;;13.65;66.67;101758.09;5011963;28;20034;-79
2022/05/12 04:45:17;;;;;;;1.25;0.75;;;;;;;13.69;66.57;101762.44;5023368;28;20467;-79
2022/05/12 04:47:44;;;;;;;0.20;0.20;;;;;;;13.67;66.45;101764.25;5013916;28;20022;-80
2022/05/12 04:50:16;;;;;;;0.10;0.10;;;;;;;13.72;66.93;101775.69;5011570;28;20033;-79
2022/05/12 04:52:42;;;;;;;0.22;0.22;;;;;;;13.68;66.61;101769.56;5007353;28;20061;-80
2022/05/12 04:55:10;;;;;;;0.00;0.00;;;;;;;13.69;66.65;101773.09;5007630;28;20033;-79
2022/05/12 04:57:38;;;;;;;0.00;0.00;;;;;;;13.75;67.05;101780.97;5006609;28;20038;-80
2022/05/12 05:00:07;;;;;;;0.10;0.10;;;;;;;13.80;66.62;101783.56;5009722;28;20038;-80
2022/05/12 05:02:33;;;;;;;0.20;0.20;;;;;;;13.79;66.32;101771.13;5006435;28;20037;-79
2022/05/12 05:04:59;;;;;;;3.65;0.65;;;;;;;13.82;66.30;101773.72;5013374;28;20152;-78
2022/05/12 05:07:26;;;;;;;0.10;0.10;;;;;;;13.88;66.75;101787.84;5014934;28;20510;-80
2022/05/12 05:09:53;;;;;;;0.10;0.10;;;;;;;13.89;66.22;101784.28;5013158;28;20040;-78
2022/05/12 05:12:19;;;;;;;0.10;0.10;;;;;;;13.93;66.37;101789.53;5009589;28;20504;-79
2022/05/12 05:14:45;;;;;;;0.25;0.25;;;;;;;13.92;66.51;101788.66;5015755;28;20105;-80
2022/05/12 05:17:11;;;;;;;0.00;0.00;;;;;;;14.00;66.00;101799.16;5016279;28;20479;-81
2022/05/12 05:19:38;;;;;;;0.00;0.00;;;;;;;14.00;65.98;101801.81;5017355;28;20022;-79
2022/05/12 05:22:04;;;;;;;0.20;0.20;;;;;;;14.06;65.83;101809.72;5018522;28;20102;-80
2022/05/12 05:24:30;;;;;;;0.00;0.00;;;;;;;14.01;65.86;101812.44;5019775;28;20025;-81
2022/05/12 05:26:56;;;;;;;0.00;0.00;;;;;;;14.15;65.72;101806.84;5014308;28;20058;-81
2022/05/12 05:29:22;;;;;;;0.05;0.05;;;;;;;14.18;66.01;101817.47;5019548;28;20038;-81
2022/05/12 05:31:49;;;;;;;0.00;0.00;;;;;;;14.24;65.83;101809.34;5019646;28;20144;-79
2022/05/12 05:34:24;;;;;;;0.10;0.10;;;;;;;14.31;65.40;101812.75;5015444;28;20543;-80
2022/05/12 05:36:50;;;;;;;0.00;0.00;;;;;;;14.24;65.10;101812.00;5018317;28;20042;-80
2022/05/12 05:39:19;;;;;;;0.20;0.20;;;;;;;14.26;65.11;101825.31;5023599;28;20029;-81
2022/05/12 05:41:45;;;;;;;0.00;0.00;;;;;;;14.35;65.33;101827.78;5020488;28;20462;-79
2022/05/12 05:44:11;;;;;;;0.10;0.10;;;;;;;14.31;64.91;101841.22;5020669;28;20100;-78
2022/05/12 05:46:37;;;;;;;0.00;0.00;;;;;;;14.36;64.84;101840.19;5011165;28;20091;-77
2022/05/12 05:49:04;;;;;;;0.10;0.10;;;;;;;14.46;65.08;101838.22;5018558;28;20041;-81
2022/05/12 05:54:16;;;;;;;0.03;0.03;;;;;;;14.50;64.58;101855.91;5016110;28;20045;-81
2022/05/12 05:56:43;;;;;;;0.10;0.10;;;;;;;14.49;64.64;101862.19;5018323;28;20037;-82
2022/05/12 05:59:09;;;;;;;0.00;0.00;;;;;;;14.51;64.41;101868.34;5012368;28;20022;-83
2022/05/12 06:01:35;;;;;;;0.00;0.00;;;;;;;14.61;63.89;101879.72;5016081;28;20017;-82
2022/05/12 06:04:02;;;;;;;0.00;0.00;;;;;;;14.55;63.51;101872.72;5017473;28;20604;-83
2022/05/12 06:06:29;;;;;;;0.03;0.03;;;;;;;14.64;63.97;101873.44;5017422;28;20112;-83
2022/05/12 06:08:55;;;;;;;0.00;0.00;;;;;;;14.66;63.91;101866.31;5016727;28;20029;-83
2022/05/12 06:11:21;;;;;;;0.10;0.10;;;;;;;14.74;63.87;101882.16;5017767;28;20490;-83
2022/05/12 06:13:48;;;;;;;0.00;0.00;;;;;;;14.75;63.09;101884.78;5027893;28;20120;-83
2022/05/12 06:16:15;;;;;;;0.10;0.10;;;;;;;14.74;62.82;101891.03;5019182;28;20404;-82
2022/05/12 06:18:41;;;;;;;0.00;0.00;;;;;;;14.83;62.87;101896.19;5022550;28;20029;-83
2022/05/12 06:21:12;;;;;;;0.10;0.10;;;;;;;14.84;62.33;101891.72;5014032;28;20100;-82
2022/05/12 06:23:39;;;;;;;0.40;0.40;;;;;;;14.97;62.81;101895.91;5012690;28;20032;-80
2022/05/12 06:26:13;;;;;;;0.00;0.00;;;;;;;14.97;62.28;101903.91;5044494;22;20074;-78
2022/05/12 06:28:42;;;;;;;0.00;0.00;;;;;;;14.99;61.43;101906.53;5021987;28;20123;-79
2022/05/12 06:31:08;;;;;;;0.00;0.00;;;;;;;15.05;61.92;101901.06;5029768;28;20036;-78
2022/05/12 06:33:34;;;;;;;0.25;0.25;;;;;;;15.10;61.63;101907.16;5031845;28;20037;-79
2022/05/12 06:36:05;;;;;;;0.10;0.10;;;;;;;15.21;61.14;101906.94;5020849;28;20064;-78
2022/05/12 06:38:32;;;;;;;0.00;0.00;;;;;;;15.24;60.94;101917.56;5019092;28;20038;-78
2022/05/12 06:40:58;;;;;;;0.85;0.40;;;;;;;15.16;60.03;101920.38;5013151;28;20119;-79
2022/05/12 06:43:24;;;;;;;0.10;0.10;;;;;;;15.32;60.35;101930.75;5018422;28;20687;-76
2022/05/12 06:45:50;;;;;;;0.00;0.00;;;;;;;15.35;60.72;101930.66;5034128;28;20085;-79
2022/05/12 06:48:17;;;;;;;0.00;0.00;;;;;;;15.41;60.38;101929.66;5018258;28;20032;-80
2022/05/12 06:50:43;;;;;;;0.10;0.10;;;;;;;15.38;59.88;101941.28;5016504;28;20036;-79
2022/05/12 06:53:09;;;;;;;0.00;0.00;;;;;;;15.42;60.19;101942.97;5028580;28;20091;-79
2022/05/12 06:55:35;;;;;;;0.00;0.00;;;;;;;15.52;60.05;101940.97;5013429;28;20038;-79
2022/05/12 06:58:01;;;;;;;0.00;0.00;;;;;;;15.45;58.87;101942.91;5014154;28;20034;-80
2022/05/12 07:00:27;;;;;;;0.00;0.00;;;;;;;15.60;59.22;101938.09;5015699;28;20037;-80
2022/05/12 07:02:54;;;;;;;0.00;0.00;;;;;;;15.57;59.04;101930.19;5015225;28;20029;-80
2022/05/12 07:05:23;;;;;;;0.20;0.20;;;;;;;15.72;59.94;101940.50;5018598;28;20485;-81
2022/05/12 07:07:49;;;;;;;0.00;0.00;;;;;;;15.67;58.75;101948.59;5010763;28;20014;-78
2022/05/12 07:10:16;;;;;;;0.08;0.08;;;;;;;15.71;57.91;101949.41;5008131;28;20083;-77
2022/05/12 07:12:43;;;;;;;0.03;0.03;;;;;;;15.78;58.09;101948.34;5010835;28;20124;-78
2022/05/12 07:15:10;;;;;;;0.00;0.00;;;;;;;15.88;58.15;101961.53;5009409;28;20026;-77
2022/05/12 07:17:38;;;;;;;0.10;0.10;;;;;;;15.95;58.29;101957.78;5017314;28;20486;-78
2022/05/12 07:28:26;;;;;;;0.17;0.17;;;;;;;16.20;57.10;101962.50;5017873;28;20137;-77
2022/05/12 07:31:09;;;;;;;0.00;0.00;;;;;;;16.28;56.92;101965.88;5017215;28;20461;-77
2022/05/12 07:33:39;;;;;;;0.00;0.00;;;;;;;16.28;55.52;101966.75;5017350;28;20026;-77
2022/05/12 07:36:10;;;;;;;0.00;0.00;;;;;;;16.43;55.32;101965.47;5017688;28;20030;-77
2022/05/12 07:38:36;;;;;;;0.00;0.00;;;;;;;16.41;54.34;101982.47;5019961;28;20359;-78
2022/05/12 07:41:04;;;;;;;0.00;0.00;;;;;;;16.55;54.60;101968.72;5018552;28;20026;-78
2022/05/12 07:43:31;;;;;;;0.00;0.00;;;;;;;16.64;54.94;101979.19;5019384;28;20518;-78
2022/05/12 07:45:57;;;;;;;0.00;0.00;;;;;;;16.73;54.68;101973.56;5017102;28;20064;-77
2022/05/12 07:48:23;;;;;;;0.00;0.00;;;;;;;16.76;54.81;101968.16;5017267;28;20409;-78
2022/05/12 07:50:49;;;;;;;0.08;0.08;;;;;;;16.79;53.62;101977.88;5016701;28;20029;-78
2022/05/12 07:53:15;;;;;;;0.00;0.00;;;;;;;16.94;54.09;101980.16;5016001;28;20038;-77
2022/05/12 07:55:41;;;;;;;0.00;0.00;;;;;;;16.96;51.59;101972.09;5016578;28;20113;-80
2022/05/12 07:58:10;;;;;;;0.00;0.00;;;;;;;16.97;50.56;101982.75;5017115;28;20468;-79
2022/05/12 08:00:36;;;;;;;0.00;0.00;;;;;;;17.02;51.13;101974.56;5017464;28;20025;-77
2022/05/12 08:03:03;;;;;;;0.00;0.00;;;;;;;17.13;50.94;101974.28;5017550;28;20033;-78
2022/05/12 08:05:32;;;;;;;0.00;0.00;;;;;;;17.17;48.10;101977.72;5017340;28;20019;-78
2022/05/12 08:07:58;;;;;;;0.00;0.00;;;;;;;17.09;48.39;101976.16;5015888;28;20073;-79
2022/05/12 08:10:25;;;;;;;0.03;0.03;;;;;;;17.06;48.72;101976.25;5017338;28;20387;-77
2022/05/12 08:12:51;;;;;;;0.00;0.00;;;;;;;17.23;48.62;101982.91;5016936;28;20485;-78
2022/05/12 08:15:18;;;;;;;0.43;0.20;;;;;;;17.29;48.30;101982.72;5016249;28;20025;-79
2022/05/12 08:17:44;;;;;;;0.00;0.00;;;;;;;17.28;46.92;101979.19;5017117;28;20036;-78
2022/05/12 08:20:12;;;;;;;0.10;0.10;;;;;;;17.38;46.87;101992.28;5016334;28;20113;-78
2022/05/12 08:22:38;;;;;;;3.40;1.85;;;;;;;17.48;47.02;101987.53;5015556;28;20034;-78
2022/05/12 08:25:08;;;;;;;0.10;0.10;;;;;;;17.56;47.32;101985.50;5016081;28;20029;-78
2022/05/12 08:27:34;;;;;;;0.10;0.10;;;;;;;17.58;47.39;101983.63;5016650;28;20026;-79
2022/05/12 08:30:00;;;;;;;0.00;0.00;;;;;;;17.68;46.72;101985.09;5034702;28;20057;-79
2022/05/12 08:32:26;;;;;;;0.00;0.00;;;;;;;17.74;46.22;101979.53;5035229;28;20104;-79
2022/05/12 08:34:52;;;;;;;0.00;0.00;;;;;;;17.89;47.38;101982.66;5036021;28;20030;-78
2022/05/12 08:37:19;;;;;;;0.00;0.00;;;;;;;17.95;46.61;101987.84;5036278;28;20029;-77
2022/05/12 08:39:46;;;;;;;0.10;0.10;;;;;;;18.00;45.90;101983.22;5036060;28;20041;-78
2022/05/12 08:42:23;;;;;;;0.00;0.00;;;;;;;18.10;46.30;102000.75;5035662;28;20030;-79
2022/05/12 08:44:51;;;;;;;0.00;0.00;;;;;;;18.14;45.63;102008.69;5035568;28;20033;-79
2022/05/12 08:47:23;;;;;;;0.10;0.10;;;;;;;18.14;44.54;102009.56;5036798;28;20555;-78
2022/05/12 08:49:51;;;;;;;0.00;0.00;;;;;;;18.21;45.07;102003.06;5036404;28;20029;-79
2022/05/12 08:52:25;;;;;;;0.10;0.10;;;;;;;18.38;45.63;102006.97;5034839;28;20061;-79
2022/05/12 08:55:15;;;;;;;0.30;0.30;;;;;;;18.49;45.08;101998.56;5034777;28;20026;-79
2022/05/12 08:58:04;;;;;;;0.00;0.00;;;;;;;18.53;44.57;102002.88;5034820;28;20029;-78
2022/05/12 09:00:48;;;;;;;0.20;0.20;;;;;;;18.50;44.18;102011.94;5034970;28;20030;-79
2022/05/12 09:03:30;;;;;;;0.08;0.08;;;;;;;18.51;43.27;102012.81;5037425;28;20029;-78
2022/05/12 09:06:03;;;;;;;0.10;0.10;;;;;;;18.68;44.51;102013.09;5036382;28;20060;-78
2022/05/12 09:11:15;;;;;;;0.00;0.00;;;;;;;18.83;43.30;102006.31;5094119;27;1229710;-77
2022/05/12 09:13:46;;;;;;;0.00;0.00;;;;;;;18.96;42.32;101995.16;5110075;28;20457;-77
2022/05/12 09:16:19;;;;;;;0.20;0.20;;;;;;;19.02;42.95;101998.47;5094571;28;20025;-77
2022/05/12 09:18:46;;;;;;;0.20;0.20;;;;;;;18.98;41.58;101985.22;5090414;28;20393;-77
2022/05/12 09:21:18;;;;;;;1.23;1.00;;;;;;;18.86;41.20;102003.50;5088370;28;20024;-77
2022/05/12 09:23:44;;;;;;;0.00;0.00;;;;;;;19.11;42.19;101996.41;5088550;28;20104;-76
2022/05/12 09:29:30;;;;;;;0.10;0.10;;;;;;;19.31;40.82;102007.25;5097408;27;20344;-78
2022/05/12 09:34:46;;;;;;;1.07;1.07;;;;;;;19.33;39.33;102008.06;5130275;27;1175497;-78
2022/05/12 09:39:51;;;;;;;3.70;0.90;;;;;;;19.35;40.04;102003.53;5090596;27;1861564;-76
2022/05/12 09:48:13;;;;;;;0.00;0.00;;;;;;;19.91;38.63;102003.16;5193171;27;20394;-76
2022/05/12 09:50:40;;;;;;;0.10;0.10;;;;;;;19.86;37.78;101996.19;5172395;27;20062;-74
2022/05/12 09:53:09;;;;;;;0.05;0.05;;;;;;;20.02;38.24;101991.00;5171591;27;20448;-77
2022/05/12 09:55:38;;;;;;;0.55;0.55;;;;;;;20.07;38.93;102000.72;5161690;27;20027;-77
2022/05/12 10:00:48;;;;;;;0.20;0.20;;;;;;;20.04;37.20;102016.03;5120194;27;1199961;-76
2022/05/12 10:08:44;;;;;;;0.10;0.10;;;;;;;20.18;36.93;102001.16;5102930;27;20393;-78
2022/05/12 10:11:13;;;;;;;0.10;0.10;;;;;;;20.16;36.07;102003.91;5091378;28;20415;-78
2022/05/12 10:16:25;;;;;;;0.10;0.10;;;;;;;20.18;35.87;102001.16;5072082;27;21030;-78
2022/05/12 10:18:56;;;;;;;0.10;0.10;;;;;;;20.23;36.53;102007.22;5069249;28;20058;-76
2022/05/12 10:21:28;;;;;;;0.10;0.10;;;;;;;20.25;36.72;102020.59;5068849;28;20036;-76
2022/05/12 10:27:02;;;;;;;0.00;0.00;;;;;;;20.42;36.65;102007.28;5061897;28;20396;-78
2022/05/12 10:30:08;;;;;;;0.20;0.20;;;;;;;20.57;36.96;102008.44;5053073;28;20120;-77
2022/05/12 10:33:14;;;;;;;0.10;0.10;;;;;;;20.66;36.41;102008.06;5054167;28;20048;-78
2022/05/12 10:36:14;;;;;;;0.10;0.10;;;;;;;20.74;34.92;101998.81;5053740;28;20068;-78
2022/05/12 10:41:29;;;;;;;0.00;0.00;;;;;;;20.95;35.55;101989.75;5083771;27;1225560;-77
2022/05/12 10:44:23;;;;;;;0.00;0.00;;;;;;;20.97;35.24;101990.56;5112048;28;20043;-76
2022/05/12 10:47:04;;;;;;;0.00;0.00;;;;;;;21.08;35.50;101994.56;5089429;28;20024;-78
2022/05/12 10:50:04;;;;;;;0.05;0.05;;;;;;;21.09;34.51;101993.63;5090133;28;20043;-77
2022/05/12 10:52:47;;;;;;;0.08;0.08;;;;;;;21.06;35.04;101989.25;5088303;28;20061;-76
2022/05/12 10:55:28;;;;;;;;;;;;;;;21.44;35.90;101991.09;5088860;28;20116;-76
2022/05/12 10:58:26;;;;;;;0.00;0.00;;;;;;;21.48;35.16;101987.28;5092114;28;19984;-78
2022/05/12 11:01:17;;;;;;;0.03;0.03;;;;;;;21.41;32.93;101986.72;5091224;28;20680;-78
2022/05/12 11:06:23;;;;;;;0.05;0.05;;;;;;;21.25;33.09;101983.88;5073682;28;20364;-78
2022/05/12 11:11:49;;;;;;;0.05;0.05;;;;;;;21.46;33.83;101981.97;5110183;27;20357;-76
2022/05/12 11:14:24;;;;;;;0.03;0.03;;;;;;;21.45;33.49;101987.44;5110889;28;20134;-77
2022/05/12 11:19:59;;;;;;;0.05;0.05;;;;;;;21.19;33.59;101988.69;5111564;27;20132;-77
2022/05/12 11:22:53;;;;;;;0.10;0.10;;;;;;;21.29;32.91;101980.06;5111201;28;20071;-77
2022/05/12 11:25:31;;;;;;;0.10;0.10;;;;;;;21.49;33.36;101975.56;5109981;28;20031;-76
2022/05/12 11:30:37;;;;;;;0.00;0.00;;;;;;;21.46;32.25;101976.59;5110526;27;20893;-77
2022/05/12 11:33:41;;;;;;;0.20;0.20;;;;;;;21.73;33.43;101980.75;5112110;28;20036;-77
2022/05/12 11:36:10;;;;;;;0.00;0.00;;;;;;;21.85;33.98;101977.44;5111835;28;20028;-77
2022/05/12 11:44:26;;;;;;;0.10;0.10;;;;;;;22.13;33.53;101985.03;5112458;27;20379;-77
2022/05/12 11:50:13;;;;;;;1.90;1.17;;;;;;;22.07;33.26;101984.44;5071632;27;1204762;-77
2022/05/12 11:52:53;;;;;;;0.35;0.35;;;;;;;22.11;31.85;101972.56;5088421;28;20115;-77
2022/05/12 11:58:13;;;;;;;0.00;0.00;;;;;;;22.26;31.81;101981.72;5077212;27;20131;-75
2022/05/12 12:13:53;;;;;;;0.00;0.00;;;;;;;22.68;30.79;101956.13;5089030;27;21156;-77
2022/05/12 12:16:24;;;;;;;0.05;0.05;;;;;;;22.78;30.56;101968.19;5085835;28;20043;-77
2022/05/12 12:18:55;;;;;;;0.10;0.10;;;;;;;22.75;30.91;101962.97;5091775;28;20039;-76
2022/05/12 12:21:42;;;;;;;0.10;0.10;;;;;;;22.82;32.01;101966.19;5086606;28;20027;-77
2022/05/12 12:24:34;;;;;;;0.10;0.10;;;;;;;22.89;31.08;101959.50;5079942;28;20035;-76
2022/05/12 12:27:19;;;;;;;0.10;0.10;;;;;;;22.97;31.01;101960.88;5100829;22;20038;-82
2022/05/12 12:29:49;;;;;;;0.08;0.08;;;;;;;22.72;30.48;101973.06;5093080;28;20127;-82
2022/05/12 12:32:33;;;;;;;0.20;0.20;;;;;;;22.75;30.11;101970.19;5093408;28;20103;-83
2022/05/12 12:35:21;;;;;;;0.17;0.17;;;;;;;22.66;30.98;101962.59;5087983;28;20031;-82
2022/05/12 12:37:50;;;;;;;1.15;1.05;;;;;;;22.76;30.87;101969.22;5074648;28;20492;-82
2022/05/12 12:43:28;;;;;;;0.10;0.10;;;;;;;22.69;31.10;101978.59;5074195;27;20526;-84
2022/05/12 12:45:57;;;;;;;0.10;0.10;;;;;;;22.82;31.12;101957.19;5067196;28;20055;-82
2022/05/12 12:48:34;;;;;;;0.10;0.10;;;;;;;22.90;30.17;101955.84;5072675;28;20033;-84
2022/05/12 12:51:01;;;;;;;0.10;0.10;;;;;;;22.87;30.62;101972.22;5083406;28;20025;-85
2022/05/12 12:56:37;;;;;;;0.10;0.10;;;;;;;22.87;31.54;101961.41;5084788;28;20032;-84
2022/05/12 12:59:13;;;;;;;0.00;0.00;;;;;;;22.88;30.08;101949.66;5084222;28;20025;-85
2022/05/12 13:01:57;;;;;;;0.03;0.03;;;;;;;23.01;30.07;101957.09;5080898;28;20032;-84
2022/05/12 13:04:26;;;;;;;0.45;0.45;;;;;;;22.80;29.84;101938.38;5077540;28;20036;-84
2022/05/12 13:06:57;;;;;;;0.10;0.10;;;;;;;22.81;30.60;101942.81;5078548;28;20071;-83